createdAt,value
2022-11-12T00:01:02.716Z,5.05
2022-11-12T00:03:29.720Z,5.01
2022-11-12T00:05:56.750Z,4.98
2022-11-12T00:08:24.158Z,4.93
2022-11-12T00:10:51.416Z,4.91
2022-11-12T00:13:18.666Z,4.88
2022-11-12T00:15:47.221Z,4.89
2022-11-12T00:18:14.374Z,4.86
2022-11-12T00:20:41.520Z,4.93
2022-11-12T00:23:08.830Z,4.92
2022-11-12T00:25:35.892Z,4.92
2022-11-12T00:28:04.953Z,4.88
2022-11-12T00:30:32.108Z,4.83
2022-11-12T00:33:02.611Z,4.82
2022-11-12T00:35:32.087Z,4.72
2022-11-12T00:37:59.279Z,4.79
2022-11-12T00:40:26.810Z,4.75
2022-11-12T00:42:54.107Z,4.75
2022-11-12T00:45:21.264Z,4.75
2022-11-12T00:47:48.700Z,4.76
2022-11-12T00:50:16.448Z,4.80
2022-11-12T00:52:43.821Z,4.83
2022-11-12T00:55:11.319Z,4.87
2022-11-12T00:57:38.367Z,4.88
2022-11-12T01:00:06.706Z,4.91
2022-11-12T01:02:40.659Z,4.93
2022-11-12T01:05:10.367Z,4.95
2022-11-12T01:07:37.434Z,4.97
2022-11-12T01:10:05.517Z,4.91
2022-11-12T01:12:32.534Z,4.95
2022-11-12T01:14:59.913Z,4.97
2022-11-12T01:17:27.034Z,4.97
2022-11-12T01:19:54.029Z,4.97
2022-11-12T01:22:21.036Z,4.95
2022-11-12T01:24:48.022Z,4.91
2022-11-12T01:27:15.052Z,4.87
2022-11-12T01:29:42.120Z,4.93
2022-11-12T01:32:09.154Z,4.90
2022-11-12T01:34:36.539Z,4.90
2022-11-12T01:37:03.562Z,4.94
2022-11-12T01:39:30.578Z,4.93
2022-11-12T01:41:57.566Z,4.91
2022-11-12T01:44:29.311Z,4.93
2022-11-12T01:47:02.611Z,4.92
2022-11-12T01:49:56.301Z,4.91
2022-11-12T01:52:35.369Z,4.88
2022-11-12T01:55:08.003Z,4.87
2022-11-12T01:57:41.573Z,4.89
2022-11-12T02:00:11.538Z,4.88
2022-11-12T02:02:39.570Z,4.87
2022-11-12T02:05:10.318Z,4.89
2022-11-12T02:07:40.770Z,4.87
2022-11-12T02:10:10.091Z,4.86
2022-11-12T02:12:56.783Z,4.86
2022-11-12T02:15:23.829Z,4.85
2022-11-12T02:17:51.079Z,4.82
2022-11-12T02:20:18.741Z,4.78
2022-11-12T02:22:45.948Z,4.75
2022-11-12T02:25:17.586Z,4.72
2022-11-12T02:27:45.189Z,4.70
2022-11-12T02:30:12.628Z,4.66
2022-11-12T02:32:40.103Z,4.62
2022-11-12T02:35:07.515Z,4.57
2022-11-12T02:37:34.536Z,4.50
2022-11-12T02:40:01.617Z,4.40
2022-11-12T02:42:28.622Z,4.35
2022-11-12T02:44:55.676Z,4.30
2022-11-12T02:47:22.668Z,4.23
2022-11-12T02:49:49.689Z,4.18
2022-11-12T02:52:16.714Z,4.14
2022-11-12T02:54:43.769Z,4.08
2022-11-12T02:57:10.867Z,4.02
2022-11-12T02:59:37.883Z,4.01
2022-11-12T03:02:04.967Z,3.99
2022-11-12T03:04:32.111Z,3.93
2022-11-12T03:06:59.258Z,3.85
2022-11-12T03:09:26.305Z,3.84
2022-11-12T03:11:53.339Z,3.75
2022-11-12T03:14:20.380Z,3.81
2022-11-12T03:16:47.451Z,3.88
2022-11-12T03:19:14.470Z,3.91
2022-11-12T03:21:41.501Z,3.91
2022-11-12T03:24:08.506Z,3.93
2022-11-12T03:26:36.183Z,4.00
2022-11-12T03:29:03.460Z,4.00
2022-11-12T03:31:30.467Z,3.98
2022-11-12T03:33:57.475Z,4.00
2022-11-12T03:36:24.575Z,3.96
2022-11-12T03:38:51.645Z,3.86
2022-11-12T03:41:18.644Z,3.83
2022-11-12T03:43:45.798Z,3.78
2022-11-12T03:46:13.406Z,3.72
2022-11-12T03:48:40.448Z,3.67
2022-11-12T03:51:07.456Z,3.63
2022-11-12T03:53:34.512Z,3.53
2022-11-12T03:56:01.573Z,3.61
2022-11-12T03:58:28.855Z,3.63
2022-11-12T04:00:56.134Z,3.58
2022-11-12T04:03:23.208Z,3.54
2022-11-12T04:06:09.298Z,3.53
2022-11-12T04:08:36.632Z,3.53
2022-11-12T04:11:05.218Z,3.43
2022-11-12T04:13:32.406Z,3.43
2022-11-12T04:16:20.781Z,3.40
2022-11-12T04:19:09.244Z,3.33
2022-11-12T04:21:55.827Z,3.37
2022-11-12T04:24:56.665Z,3.39
2022-11-12T04:27:29.415Z,3.40
2022-11-12T04:30:15.778Z,3.35
2022-11-12T04:32:51.161Z,3.33
2022-11-12T04:35:19.213Z,3.29
2022-11-12T04:37:47.467Z,3.24
2022-11-12T04:40:34.483Z,3.20
2022-11-12T04:43:21.318Z,3.17
2022-11-12T04:45:51.209Z,3.11
2022-11-12T04:48:19.143Z,3.06
2022-11-12T04:50:49.712Z,2.99
2022-11-12T04:53:16.968Z,2.97
2022-11-12T04:55:43.996Z,2.94
2022-11-12T04:58:12.037Z,2.96
2022-11-12T05:00:39.328Z,2.95
2022-11-12T05:03:06.655Z,3.01
2022-11-12T05:05:34.333Z,2.99
2022-11-12T05:08:02.225Z,2.95
2022-11-12T05:10:30.176Z,2.95
2022-11-12T05:12:57.266Z,2.98
2022-11-12T05:15:24.827Z,2.96
2022-11-12T05:17:52.040Z,2.93
2022-11-12T05:20:19.160Z,2.87
2022-11-12T05:23:04.474Z,2.88
2022-11-12T05:25:33.432Z,2.86
2022-11-12T05:28:00.475Z,2.85
2022-11-12T05:30:27.547Z,2.88
2022-11-12T05:32:54.566Z,2.88
2022-11-12T05:35:21.569Z,2.87
2022-11-12T05:37:48.714Z,2.89
2022-11-12T05:40:15.909Z,2.91
2022-11-12T05:42:44.326Z,2.93
2022-11-12T05:45:11.395Z,2.98
2022-11-12T05:47:40.733Z,2.95
2022-11-12T05:50:08.366Z,2.88
2022-11-12T05:52:35.734Z,2.82
2022-11-12T05:55:02.772Z,2.79
2022-11-12T05:57:29.803Z,2.79
2022-11-12T05:59:56.981Z,2.74
2022-11-12T06:02:24.229Z,2.77
2022-11-12T06:04:51.340Z,2.74
2022-11-12T06:07:18.670Z,2.72
2022-11-12T06:09:45.792Z,2.67
2022-11-12T06:12:12.810Z,2.63
2022-11-12T06:14:40.298Z,2.63
2022-11-12T06:17:12.961Z,2.62
2022-11-12T06:19:40.424Z,2.62
2022-11-12T06:22:10.510Z,2.57
2022-11-12T06:24:37.504Z,2.55
2022-11-12T06:27:06.942Z,2.56
2022-11-12T06:29:36.803Z,2.55
2022-11-12T06:32:03.970Z,2.48
2022-11-12T06:34:31.007Z,2.55
2022-11-12T06:36:58.070Z,2.57
2022-11-12T06:39:25.068Z,2.56
2022-11-12T06:41:52.111Z,2.52
2022-11-12T06:44:22.256Z,2.59
2022-11-12T06:46:50.848Z,2.61
2022-11-12T06:49:17.946Z,2.61
2022-11-12T06:51:45.160Z,2.62
2022-11-12T06:54:12.254Z,2.62
2022-11-12T06:56:39.322Z,2.65
2022-11-12T06:59:06.602Z,2.65
2022-11-12T07:01:33.658Z,2.67
2022-11-12T07:04:00.806Z,2.71
2022-11-12T07:06:27.811Z,2.75
2022-11-12T07:08:54.926Z,2.83
2022-11-12T07:11:21.949Z,2.84
2022-11-12T07:13:49.059Z,2.90
2022-11-12T07:16:18.941Z,2.93
2022-11-12T07:18:47.025Z,2.94
2022-11-12T07:21:16.754Z,2.97
2022-11-12T07:23:44.595Z,2.98
2022-11-12T07:26:23.254Z,2.98
2022-11-12T07:28:52.126Z,3.00
2022-11-12T07:31:20.471Z,3.04
2022-11-12T07:33:50.513Z,3.08
2022-11-12T07:36:19.868Z,3.11
2022-11-12T07:38:50.178Z,3.14
2022-11-12T07:41:20.180Z,3.19
2022-11-12T07:43:48.759Z,3.19
2022-11-12T07:46:20.145Z,3.23
2022-11-12T07:48:47.472Z,3.20
2022-11-12T07:51:26.305Z,3.34
2022-11-12T07:53:59.201Z,3.37
2022-11-12T07:56:28.032Z,3.40
2022-11-12T07:58:55.048Z,3.47
2022-11-12T08:01:39.790Z,3.46
2022-11-12T08:04:11.829Z,3.54
2022-11-12T08:06:39.296Z,3.63
2022-11-12T08:09:10.950Z,3.65
2022-11-12T08:11:38.023Z,3.75
2022-11-12T08:14:05.609Z,3.79
2022-11-12T08:16:32.771Z,3.83
2022-11-12T08:19:00.853Z,3.91
2022-11-12T08:21:27.837Z,3.95
2022-11-12T08:23:54.861Z,4.04
2022-11-12T08:26:21.918Z,4.09
2022-11-12T08:28:48.954Z,4.16
2022-11-12T08:31:22.303Z,4.29
2022-11-12T08:33:50.327Z,4.37
2022-11-12T08:36:18.007Z,4.46
2022-11-12T08:38:45.390Z,4.52
2022-11-12T08:41:14.236Z,4.64
2022-11-12T08:43:42.303Z,4.67
2022-11-12T08:46:10.161Z,4.74
2022-11-12T08:48:37.521Z,4.79
2022-11-12T08:51:05.685Z,4.84
2022-11-12T08:53:33.015Z,4.87
2022-11-12T08:56:00.238Z,4.92
2022-11-12T08:58:27.918Z,4.94
2022-11-12T09:00:56.200Z,5.05
2022-11-12T09:03:25.721Z,5.11
2022-11-12T09:05:53.856Z,5.17
2022-11-12T09:08:24.236Z,5.24
2022-11-12T09:10:52.078Z,5.23
2022-11-12T09:13:19.873Z,5.36
2022-11-12T09:15:47.269Z,5.42
2022-11-12T09:18:17.838Z,5.50
2022-11-12T09:20:45.417Z,5.58
2022-11-12T09:23:14.723Z,5.63
2022-11-12T09:25:42.412Z,5.71
2022-11-12T09:28:11.853Z,5.81
2022-11-12T09:30:46.481Z,5.89
2022-11-12T09:33:33.820Z,5.93
2022-11-12T09:36:03.437Z,5.98
2022-11-12T09:38:31.341Z,6.00
2022-11-12T09:41:24.130Z,6.07
2022-11-12T09:43:54.118Z,6.17
2022-11-12T09:46:28.778Z,6.26
2022-11-12T09:49:05.393Z,6.37
2022-11-12T09:51:38.724Z,6.46
2022-11-12T09:54:21.433Z,6.56
2022-11-12T09:56:53.085Z,6.61
2022-11-12T09:59:21.711Z,6.67
2022-11-12T10:02:25.424Z,6.85
2022-11-12T10:05:10.800Z,6.96
2022-11-12T10:08:16.346Z,7.07
2022-11-12T10:10:49.792Z,7.19
2022-11-12T10:13:19.882Z,7.27
2022-11-12T10:16:40.904Z,7.35
2022-11-12T10:19:29.969Z,7.41
2022-11-12T10:21:59.693Z,7.55
2022-11-12T10:24:33.638Z,7.65
2022-11-12T10:27:01.027Z,7.72
2022-11-12T10:30:01.502Z,7.78
2022-11-12T10:32:28.510Z,7.80
2022-11-12T10:34:55.533Z,7.90
2022-11-12T10:37:39.043Z,7.98
2022-11-12T10:40:20.964Z,8.07
2022-11-12T10:43:00.077Z,8.18
2022-11-12T10:45:27.564Z,8.29
2022-11-12T10:47:54.931Z,8.36
2022-11-12T10:50:31.785Z,8.47
2022-11-12T10:53:02.063Z,8.58
2022-11-12T10:55:31.415Z,8.64
2022-11-12T10:58:27.600Z,8.73
2022-11-12T11:01:12.273Z,8.77
2022-11-12T11:03:50.519Z,8.82
2022-11-12T11:06:17.458Z,8.86
2022-11-12T11:08:48.946Z,8.94
2022-11-12T11:11:29.750Z,8.96
2022-11-12T11:14:08.901Z,9.09
2022-11-12T11:16:50.198Z,9.16
2022-11-12T11:19:17.363Z,9.27
2022-11-12T11:21:50.419Z,9.32
2022-11-12T11:24:51.789Z,9.41
2022-11-12T11:28:02.449Z,9.50
2022-11-12T11:30:29.702Z,9.62
2022-11-12T11:33:02.603Z,9.75
2022-11-12T11:35:53.530Z,9.90
2022-11-12T11:38:40.617Z,10.00
2022-11-12T11:41:40.585Z,10.13
2022-11-12T11:44:29.483Z,10.26
2022-11-12T11:47:21.101Z,10.33
2022-11-12T11:50:03.765Z,10.36
2022-11-12T11:52:44.711Z,10.36
2022-11-12T11:55:36.935Z,10.35
2022-11-12T11:58:19.386Z,10.36
2022-11-12T12:01:17.710Z,10.39
2022-11-12T12:04:06.682Z,10.49
2022-11-12T12:07:00.848Z,10.55
2022-11-12T12:09:57.446Z,10.60
2022-11-12T12:12:36.413Z,10.66
2022-11-12T12:15:40.826Z,10.70
2022-11-12T12:18:38.900Z,10.61
2022-11-12T12:21:17.467Z,10.74
2022-11-12T12:23:56.277Z,10.81
2022-11-12T12:26:45.211Z,10.85
2022-11-12T12:29:15.250Z,10.86
2022-11-12T12:31:50.911Z,10.92
2022-11-12T12:34:32.159Z,11.02
2022-11-12T12:37:07.786Z,11.05
2022-11-12T12:39:53.391Z,11.09
2022-11-12T12:42:26.643Z,11.17
2022-11-12T12:45:22.983Z,11.18
2022-11-12T12:47:52.126Z,11.19
2022-11-12T12:50:21.341Z,11.19
2022-11-12T12:53:02.722Z,11.27
2022-11-12T12:55:43.122Z,11.30
2022-11-12T12:58:31.625Z,11.36
2022-11-12T13:01:34.165Z,11.39
2022-11-12T13:04:05.348Z,11.46
2022-11-12T13:06:40.166Z,11.51
2022-11-12T13:09:24.059Z,11.53
2022-11-12T13:12:06.450Z,11.57
2022-11-12T13:14:36.450Z,11.57
2022-11-12T13:17:16.616Z,11.56
2022-11-12T13:19:53.532Z,11.51
2022-11-12T13:22:20.523Z,11.54
2022-11-12T13:25:12.198Z,11.53
2022-11-12T13:27:39.175Z,11.54
2022-11-12T13:30:17.820Z,11.53
2022-11-12T13:32:47.533Z,11.52
2022-11-12T13:35:22.137Z,11.52
2022-11-12T13:38:13.310Z,11.54
2022-11-12T13:40:44.399Z,11.59
2022-11-12T13:43:32.781Z,11.63
2022-11-12T13:46:07.571Z,11.67
2022-11-12T13:48:42.797Z,11.69
2022-11-12T13:51:29.551Z,11.79
2022-11-12T13:53:56.553Z,11.86
2022-11-12T13:56:28.398Z,11.89
2022-11-12T13:59:07.796Z,12.03
2022-11-12T14:01:34.806Z,12.10
2022-11-12T14:04:01.925Z,12.14
2022-11-12T14:06:37.522Z,12.18
2022-11-12T14:09:13.272Z,12.23
2022-11-12T14:12:09.310Z,12.27
2022-11-12T14:15:10.550Z,12.33
2022-11-12T14:17:55.852Z,12.43
2022-11-12T14:20:32.180Z,12.53
2022-11-12T14:23:24.563Z,12.65
2022-11-12T14:25:54.720Z,12.75
2022-11-12T14:28:32.901Z,12.87
2022-11-12T14:31:01.554Z,12.95
2022-11-12T14:33:30.572Z,13.10
2022-11-12T14:36:14.840Z,13.25
2022-11-12T14:38:49.179Z,13.40
2022-11-12T14:41:24.255Z,13.56
2022-11-12T14:44:11.685Z,13.71
2022-11-12T14:46:52.023Z,13.79
2022-11-12T14:49:34.032Z,13.72
2022-11-12T14:52:19.010Z,13.65
2022-11-12T14:54:50.654Z,13.47
2022-11-12T14:57:23.300Z,13.26
2022-11-12T14:59:50.354Z,13.06
2022-11-12T15:02:41.679Z,12.88
2022-11-12T15:05:13.147Z,12.70
2022-11-12T15:07:58.710Z,12.56
2022-11-12T15:10:41.626Z,12.41
2022-11-12T15:13:23.501Z,12.26
2022-11-12T15:15:54.354Z,12.14
2022-11-12T15:18:25.208Z,12.04
2022-11-12T15:21:11.000Z,11.92
2022-11-12T15:23:51.194Z,11.80
2022-11-12T15:26:46.565Z,11.68
2022-11-12T15:29:24.447Z,11.60
2022-11-12T15:31:55.013Z,11.55
2022-11-12T15:34:40.142Z,11.52
2022-11-12T15:37:19.109Z,11.47
2022-11-12T15:39:59.019Z,11.40
2022-11-12T15:42:33.872Z,11.36
2022-11-12T15:45:03.660Z,11.32
2022-11-12T15:47:30.855Z,11.29
2022-11-12T15:49:59.086Z,11.27
2022-11-12T15:52:26.504Z,11.21
2022-11-12T15:54:53.657Z,11.17
2022-11-12T15:57:24.726Z,11.08
2022-11-12T16:00:07.891Z,10.97
2022-11-12T16:02:35.530Z,10.81
2022-11-12T16:05:02.685Z,10.79
2022-11-12T16:07:29.726Z,10.66
2022-11-12T16:09:56.809Z,10.60
2022-11-12T16:12:24.201Z,10.58
2022-11-12T16:14:51.265Z,10.56
2022-11-12T16:17:19.145Z,10.57
2022-11-12T16:19:46.300Z,10.50
2022-11-12T16:22:13.435Z,10.45
2022-11-12T16:24:41.376Z,10.39
2022-11-12T16:27:13.464Z,10.29
2022-11-12T16:29:41.079Z,10.26
2022-11-12T16:32:12.894Z,10.24
2022-11-12T16:34:41.486Z,10.15
2022-11-12T16:37:12.936Z,10.08
2022-11-12T16:39:42.922Z,10.00
2022-11-12T16:42:10.962Z,9.93
2022-11-12T16:44:37.948Z,9.80
2022-11-12T16:47:05.677Z,9.77
2022-11-12T16:49:38.236Z,9.80
2022-11-12T16:52:08.609Z,9.86
2022-11-12T16:54:39.227Z,9.90
2022-11-12T16:57:06.580Z,9.91
2022-11-12T16:59:33.671Z,9.90
2022-11-12T17:02:00.733Z,9.86
2022-11-12T17:04:27.759Z,9.87
2022-11-12T17:06:54.784Z,9.84
2022-11-12T17:09:21.813Z,9.77
2022-11-12T17:11:49.363Z,9.73
2022-11-12T17:14:18.302Z,9.68
2022-11-12T17:16:46.311Z,9.61
2022-11-12T17:19:13.323Z,9.46
2022-11-12T17:21:40.345Z,9.39
2022-11-12T17:24:10.467Z,9.38
2022-11-12T17:26:37.922Z,9.27
2022-11-12T17:29:08.103Z,9.28
2022-11-12T17:31:35.684Z,9.20
2022-11-12T17:34:05.384Z,9.13
2022-11-12T17:36:32.617Z,9.14
2022-11-12T17:39:00.361Z,9.08
2022-11-12T17:41:31.058Z,9.12
2022-11-12T17:43:59.996Z,9.13
2022-11-12T17:46:28.410Z,9.11
2022-11-12T17:48:56.016Z,9.11
2022-11-12T17:51:27.320Z,9.09
2022-11-12T17:53:54.411Z,9.01
2022-11-12T17:56:23.223Z,8.94
2022-11-12T17:58:53.512Z,8.85
2022-11-12T18:01:24.929Z,8.82
2022-11-12T18:03:54.646Z,8.78
2022-11-12T18:06:28.756Z,8.75
2022-11-12T18:09:17.025Z,8.67
2022-11-12T18:11:48.491Z,8.60
2022-11-12T18:14:15.731Z,8.47
2022-11-12T18:16:43.243Z,8.46
2022-11-12T18:19:11.278Z,8.40
2022-11-12T18:21:40.225Z,8.37
2022-11-12T18:24:12.381Z,8.26
2022-11-12T18:26:39.474Z,8.27
2022-11-12T18:29:07.488Z,8.22
2022-11-12T18:31:34.699Z,8.16
2022-11-12T18:34:01.840Z,8.12
2022-11-12T18:36:29.087Z,8.06
2022-11-12T18:38:56.320Z,8.03
2022-11-12T18:41:30.069Z,7.76
2022-11-12T18:43:57.072Z,7.94
2022-11-12T18:46:23.973Z,7.89
2022-11-12T18:48:51.070Z,7.81
2022-11-12T18:51:19.457Z,7.72
2022-11-12T18:53:47.605Z,7.67
2022-11-12T18:56:19.585Z,7.63
2022-11-12T18:58:47.320Z,7.62
2022-11-12T19:01:16.876Z,7.62
2022-11-12T19:03:44.358Z,7.56
2022-11-12T19:06:14.699Z,7.56
2022-11-12T19:08:41.852Z,7.55
2022-11-12T19:11:13.637Z,7.50
2022-11-12T19:13:41.629Z,7.47
2022-11-12T19:16:11.738Z,7.45
2022-11-12T19:18:40.728Z,7.38
2022-11-12T19:21:10.740Z,7.35
2022-11-12T19:23:38.961Z,7.31
2022-11-12T19:26:07.734Z,7.28
2022-11-12T19:28:35.455Z,7.26
2022-11-12T19:31:08.020Z,7.24
2022-11-12T19:33:35.577Z,7.23
2022-11-12T19:36:10.792Z,7.22
2022-11-12T19:38:37.876Z,7.17
2022-11-12T19:41:05.740Z,7.14
2022-11-12T19:43:33.460Z,7.09
2022-11-12T19:46:01.266Z,7.02
2022-11-12T19:48:28.699Z,7.03
2022-11-12T19:51:00.150Z,6.98
2022-11-12T19:53:44.729Z,6.94
2022-11-12T19:56:14.155Z,6.86
2022-11-12T19:58:45.224Z,6.83
2022-11-12T20:01:14.731Z,6.82
2022-11-12T20:03:42.214Z,6.83
2022-11-12T20:06:20.389Z,6.73
2022-11-12T20:08:47.521Z,6.75
2022-11-12T20:11:16.195Z,6.78
2022-11-12T20:13:43.228Z,6.75
2022-11-12T20:16:22.247Z,6.72
2022-11-12T20:18:55.753Z,6.69
2022-11-12T20:21:24.053Z,6.71
2022-11-12T20:23:51.061Z,6.70
2022-11-12T20:26:18.155Z,6.68
2022-11-12T20:28:45.278Z,6.65
2022-11-12T20:31:14.804Z,6.60
2022-11-12T20:33:42.798Z,6.56
2022-11-12T20:36:15.377Z,6.54
2022-11-12T20:38:44.177Z,6.50
2022-11-12T20:41:14.547Z,6.46
2022-11-12T20:43:41.946Z,6.38
2022-11-12T20:46:11.016Z,6.31
2022-11-12T20:48:43.155Z,6.28
2022-11-12T20:51:25.282Z,6.25
2022-11-12T20:54:00.087Z,6.25
2022-11-12T20:56:30.256Z,6.21
2022-11-12T20:58:58.435Z,6.14
2022-11-12T21:01:27.125Z,6.13
2022-11-12T21:03:54.400Z,6.13
2022-11-12T21:06:23.771Z,6.14
2022-11-12T21:08:50.843Z,6.13
2022-11-12T21:11:20.602Z,6.14
2022-11-12T21:13:47.751Z,6.18
2022-11-12T21:16:14.899Z,6.19
2022-11-12T21:18:42.701Z,6.16
2022-11-12T21:21:10.940Z,6.16
2022-11-12T21:23:41.138Z,6.14
2022-11-12T21:26:17.229Z,6.14
2022-11-12T21:28:54.975Z,6.14
2022-11-12T21:31:24.355Z,6.09
2022-11-12T21:34:04.188Z,6.08
2022-11-12T21:36:34.040Z,6.13
2022-11-12T21:39:02.417Z,6.13
2022-11-12T21:41:31.895Z,6.14
2022-11-12T21:43:59.061Z,6.08
2022-11-12T21:46:29.239Z,6.06
2022-11-12T21:48:56.859Z,5.99
2022-11-12T21:51:29.018Z,5.98
2022-11-12T21:53:58.175Z,5.98
2022-11-12T21:56:25.819Z,5.95
2022-11-12T21:58:54.369Z,5.93
2022-11-12T22:01:25.080Z,5.88
2022-11-12T22:03:53.940Z,5.87
2022-11-12T22:06:23.804Z,5.83
2022-11-12T22:08:52.912Z,5.78
2022-11-12T22:11:21.037Z,5.74
2022-11-12T22:13:48.174Z,5.69
2022-11-12T22:16:18.401Z,5.71
2022-11-12T22:18:47.612Z,5.71
2022-11-12T22:21:39.724Z,5.71
2022-11-12T22:24:09.927Z,5.69
2022-11-12T22:26:36.964Z,5.72
2022-11-12T22:29:04.375Z,5.71
2022-11-12T22:31:32.734Z,5.71
2022-11-12T22:34:02.162Z,5.69
2022-11-12T22:36:31.150Z,5.67
2022-11-12T22:38:58.625Z,5.62
2022-11-12T22:41:28.629Z,5.60
2022-11-12T22:43:58.131Z,5.56
2022-11-12T22:46:27.764Z,5.54
2022-11-12T22:48:55.588Z,5.53
2022-11-12T22:51:25.584Z,5.42
2022-11-12T22:53:54.794Z,5.34
2022-11-12T22:56:22.510Z,5.28
2022-11-12T22:58:52.742Z,5.31
2022-11-12T23:01:27.558Z,5.31
2022-11-12T23:03:57.164Z,5.31
2022-11-12T23:06:25.305Z,5.27
2022-11-12T23:08:56.550Z,5.22
2022-11-12T23:11:26.106Z,5.13
2022-11-12T23:13:54.674Z,5.20
2022-11-12T23:16:27.498Z,5.24
2022-11-12T23:18:54.969Z,5.27
2022-11-12T23:21:24.442Z,5.28
2022-11-12T23:23:51.790Z,5.24
2022-11-12T23:26:22.771Z,5.29
2022-11-12T23:28:53.040Z,5.26
2022-11-12T23:31:23.335Z,5.28
2022-11-12T23:33:52.770Z,5.31
2022-11-12T23:36:21.084Z,5.30
2022-11-12T23:38:48.390Z,5.29
2022-11-12T23:41:18.941Z,5.28
2022-11-12T23:43:45.983Z,5.28
2022-11-12T23:46:13.208Z,5.27
2022-11-12T23:48:41.018Z,5.22
2022-11-12T23:51:11.728Z,5.21
2022-11-12T23:53:39.247Z,5.20
2022-11-12T23:56:12.879Z,5.19
2022-11-12T23:58:41.274Z,5.19
